createdAt,value
2023-01-01T00:00:27.198Z,2.30
2023-01-01T00:02:55.212Z,2.30
2023-01-01T00:05:24.580Z,2.30
2023-01-01T00:07:52.699Z,2.20
2023-01-01T00:10:30.053Z,2.10
2023-01-01T00:12:58.537Z,2.10
2023-01-01T00:15:26.921Z,2.10
2023-01-01T00:17:55.168Z,2.00
2023-01-01T00:20:27.557Z,2.10
2023-01-01T00:22:58.126Z,2.10
2023-01-01T00:25:26.543Z,2.00
2023-01-01T00:27:54.670Z,1.90
2023-01-01T00:30:24.798Z,1.90
2023-01-01T00:32:55.137Z,2.00
2023-01-01T00:35:25.961Z,2.00
2023-01-01T00:37:54.827Z,2.00
2023-01-01T00:40:22.886Z,2.00
2023-01-01T00:42:51.066Z,1.90
2023-01-01T00:45:22.409Z,1.90
2023-01-01T00:47:51.786Z,1.90
2023-01-01T00:50:19.922Z,1.90
2023-01-01T00:52:49.910Z,1.90
2023-01-01T00:55:18.000Z,1.80
2023-01-01T00:57:45.944Z,1.80
2023-01-01T01:00:15.819Z,1.90
2023-01-01T01:02:44.010Z,1.80
2023-01-01T01:05:12.178Z,1.80
2023-01-01T01:07:40.565Z,1.80
2023-01-01T01:10:12.113Z,1.70
2023-01-01T01:12:40.339Z,1.60
2023-01-01T01:15:10.080Z,1.60
2023-01-01T01:17:38.284Z,1.30
2023-01-01T01:20:07.456Z,1.20
2023-01-01T01:22:36.047Z,1.40
2023-01-01T01:25:05.947Z,1.50
2023-01-01T01:27:35.494Z,1.60
2023-01-01T01:30:03.392Z,1.50
2023-01-01T01:32:31.341Z,1.50
2023-01-01T01:34:59.248Z,1.30
2023-01-01T01:37:27.167Z,1.20
2023-01-01T01:39:55.117Z,0.90
2023-01-01T01:42:23.647Z,1.00
2023-01-01T01:44:56.543Z,1.20
2023-01-01T01:47:32.034Z,1.30
2023-01-01T01:50:04.261Z,1.50
2023-01-01T01:52:34.416Z,1.50
2023-01-01T01:55:04.493Z,1.50
2023-01-01T01:57:36.606Z,1.50
2023-01-01T02:00:10.939Z,1.60
2023-01-01T02:02:47.548Z,1.70
2023-01-01T02:05:15.969Z,1.60
2023-01-01T02:07:44.153Z,1.50
2023-01-01T02:10:12.366Z,1.60
2023-01-01T02:12:40.521Z,1.70
2023-01-01T02:15:11.349Z,1.80
2023-01-01T02:17:45.728Z,1.80
2023-01-01T02:20:30.346Z,1.70
2023-01-01T02:23:16.724Z,1.70
2023-01-01T02:25:58.539Z,1.60
2023-01-01T02:28:45.165Z,1.60
2023-01-01T02:31:22.775Z,1.70
2023-01-01T02:33:54.207Z,1.70
2023-01-01T02:36:26.135Z,1.60
2023-01-01T02:38:58.017Z,1.70
2023-01-01T02:41:28.883Z,1.50
2023-01-01T02:46:25.168Z,1.60
2023-01-01T02:48:54.124Z,1.30
2023-01-01T02:51:34.361Z,1.10
2023-01-01T02:54:09.633Z,1.30
2023-01-01T02:56:43.288Z,1.40
2023-01-01T02:59:40.122Z,1.50
2023-01-01T03:02:19.422Z,1.60
2023-01-01T03:05:02.314Z,1.60
2023-01-01T03:07:41.981Z,1.40
2023-01-01T03:10:16.321Z,1.50
2023-01-01T03:12:51.456Z,1.70
2023-01-01T03:15:28.698Z,1.70
2023-01-01T03:18:02.546Z,1.80
2023-01-01T03:20:34.941Z,1.90
2023-01-01T03:23:07.934Z,1.90
2023-01-01T03:25:41.509Z,1.90
2023-01-01T03:28:15.630Z,2.00
2023-01-01T03:30:47.572Z,1.70
2023-01-01T03:33:22.299Z,1.30
2023-01-01T03:35:55.235Z,1.10
2023-01-01T03:38:27.542Z,1.00
2023-01-01T03:41:03.079Z,1.20
2023-01-01T03:43:40.696Z,1.30
2023-01-01T03:46:11.923Z,1.40
2023-01-01T03:49:00.281Z,1.50
2023-01-01T03:51:44.681Z,1.50
2023-01-01T03:54:23.308Z,1.50
2023-01-01T03:56:57.139Z,1.50
2023-01-01T03:59:30.281Z,1.20
2023-01-01T04:02:01.580Z,1.30
2023-01-01T04:04:29.801Z,1.10
2023-01-01T04:07:05.237Z,1.10
2023-01-01T04:09:48.167Z,1.20
2023-01-01T04:12:18.058Z,1.30
2023-01-01T04:14:46.016Z,1.50
2023-01-01T04:17:15.307Z,1.70
2023-01-01T04:19:43.443Z,1.70
2023-01-01T04:22:11.384Z,1.90
2023-01-01T04:24:39.368Z,1.80
2023-01-01T04:27:07.301Z,1.80
2023-01-01T04:29:36.260Z,1.90
2023-01-01T04:32:04.266Z,1.70
2023-01-01T04:34:33.549Z,1.70
2023-01-01T04:37:01.443Z,1.70
2023-01-01T04:39:29.381Z,1.70
2023-01-01T04:41:57.324Z,1.60
2023-01-01T04:44:25.266Z,1.80
2023-01-01T04:46:56.917Z,1.80
2023-01-01T04:49:28.050Z,1.80
2023-01-01T04:51:57.308Z,1.70
2023-01-01T04:54:25.240Z,1.80
2023-01-01T04:56:53.216Z,1.70
2023-01-01T04:59:21.165Z,1.60
2023-01-01T05:01:49.306Z,1.60
2023-01-01T05:04:18.211Z,1.60
2023-01-01T05:06:46.141Z,1.30
2023-01-01T05:09:15.445Z,1.30
2023-01-01T05:11:43.537Z,1.50
2023-01-01T05:14:11.623Z,1.50
2023-01-01T05:16:40.836Z,1.50
2023-01-01T05:19:10.573Z,1.40
2023-01-01T05:21:40.451Z,1.50
2023-01-01T05:24:11.033Z,1.30
2023-01-01T05:26:42.887Z,1.20
2023-01-01T05:29:16.014Z,1.10
2023-01-01T05:31:45.423Z,1.00
2023-01-01T05:34:13.789Z,1.00
2023-01-01T05:36:41.728Z,1.00
2023-01-01T05:39:12.018Z,1.10
2023-01-01T05:41:41.585Z,1.20
2023-01-01T05:44:11.517Z,1.20
2023-01-01T05:46:39.476Z,1.10
2023-01-01T05:49:07.471Z,1.00
2023-01-01T05:54:02.271Z,1.20
2023-01-01T05:56:30.604Z,0.80
2023-01-01T05:58:59.899Z,0.70
2023-01-01T06:01:30.382Z,0.90
2023-01-01T06:04:00.086Z,0.90
2023-01-01T06:06:30.162Z,1.00
2023-01-01T06:09:00.332Z,0.90
2023-01-01T06:11:28.834Z,1.00
2023-01-01T06:13:59.800Z,1.00
2023-01-01T06:16:30.052Z,1.00
2023-01-01T06:18:59.211Z,1.00
2023-01-01T06:21:28.950Z,1.00
2023-01-01T06:23:58.037Z,1.10
2023-01-01T06:26:28.239Z,1.10
2023-01-01T06:28:57.600Z,1.00
2023-01-01T06:31:27.937Z,1.00
2023-01-01T06:33:56.051Z,0.90
2023-01-01T06:36:25.851Z,0.70
2023-01-01T06:38:55.596Z,0.80
2023-01-01T06:41:25.194Z,0.80
2023-01-01T06:43:53.203Z,0.70
2023-01-01T06:46:22.840Z,0.80
2023-01-01T06:48:55.017Z,0.70
2023-01-01T06:51:24.728Z,0.70
2023-01-01T06:53:54.138Z,0.70
2023-01-01T06:56:22.663Z,0.70
2023-01-01T06:58:50.706Z,0.70
2023-01-01T07:01:21.252Z,0.80
2023-01-01T07:03:53.632Z,0.70
2023-01-01T07:06:21.937Z,0.80
2023-01-01T07:08:49.896Z,0.70
2023-01-01T07:11:17.956Z,0.60
2023-01-01T07:13:46.400Z,0.40
2023-01-01T07:16:14.394Z,0.60
2023-01-01T07:18:42.851Z,0.70
2023-01-01T07:21:29.519Z,0.50
2023-01-01T07:23:58.581Z,0.40
2023-01-01T07:26:27.564Z,0.50
2023-01-01T07:28:59.500Z,0.50
2023-01-01T07:31:32.447Z,0.60
2023-01-01T07:34:00.393Z,0.40
2023-01-01T07:36:29.695Z,0.40
2023-01-01T07:38:57.732Z,0.40
2023-01-01T07:41:25.757Z,0.50
2023-01-01T07:43:53.830Z,0.60
2023-01-01T07:46:21.945Z,0.50
2023-01-01T07:48:49.937Z,0.80
2023-01-01T07:51:17.890Z,0.80
2023-01-01T07:53:47.233Z,0.50
2023-01-01T07:56:15.171Z,0.50
2023-01-01T07:58:43.748Z,0.50
2023-01-01T08:01:13.105Z,0.50
2023-01-01T08:03:41.104Z,0.60
2023-01-01T08:06:11.352Z,0.80
2023-01-01T08:08:39.619Z,0.90
2023-01-01T08:11:09.365Z,1.10
2023-01-01T08:13:37.345Z,1.10
2023-01-01T08:16:06.347Z,1.70
2023-01-01T08:18:34.272Z,1.90
2023-01-01T08:21:02.285Z,2.10
2023-01-01T08:23:30.251Z,2.30
2023-01-01T08:26:01.327Z,2.30
2023-01-01T08:28:31.658Z,2.50
2023-01-01T08:31:00.413Z,2.90
2023-01-01T08:33:28.431Z,3.30
2023-01-01T08:35:56.461Z,3.70
2023-01-01T08:38:24.762Z,4.00
2023-01-01T08:40:52.783Z,4.30
2023-01-01T08:43:20.787Z,4.60
2023-01-01T08:45:50.056Z,4.50
2023-01-01T08:48:18.055Z,4.60
2023-01-01T08:50:46.016Z,4.30
2023-01-01T08:53:13.941Z,4.40
2023-01-01T08:55:41.912Z,4.50
2023-01-01T08:58:09.950Z,4.50
2023-01-01T09:00:37.864Z,4.40
2023-01-01T09:03:07.241Z,5.00
2023-01-01T09:05:35.250Z,5.10
2023-01-01T09:08:03.198Z,5.10
2023-01-01T09:10:31.405Z,5.70
2023-01-01T09:12:59.369Z,6.40
2023-01-01T09:15:27.331Z,6.80
2023-01-01T09:17:55.277Z,6.80
2023-01-01T09:20:24.709Z,7.30
2023-01-01T09:22:52.652Z,6.70
2023-01-01T09:25:20.712Z,6.30
2023-01-01T09:27:48.640Z,6.00
2023-01-01T09:30:16.759Z,5.80
2023-01-01T09:32:44.688Z,5.60
2023-01-01T09:35:12.658Z,5.30
2023-01-01T09:37:41.946Z,5.20
2023-01-01T09:40:27.492Z,4.80
2023-01-01T09:43:05.171Z,4.70
2023-01-01T09:45:38.516Z,4.60
2023-01-01T09:48:11.553Z,4.60
2023-01-01T09:50:41.109Z,4.70
2023-01-01T09:53:16.184Z,4.90
2023-01-01T09:55:48.357Z,5.00
2023-01-01T09:58:16.836Z,4.80
2023-01-01T10:00:48.376Z,4.90
2023-01-01T10:03:35.416Z,4.90
2023-01-01T10:06:16.837Z,5.10
2023-01-01T10:09:02.007Z,5.10
2023-01-01T10:11:37.090Z,5.20
2023-01-01T10:14:16.820Z,5.20
2023-01-01T10:16:47.928Z,5.40
2023-01-01T10:19:25.899Z,5.50
2023-01-01T10:21:57.547Z,5.50
2023-01-01T10:24:46.815Z,5.70
2023-01-01T10:27:27.129Z,5.70
2023-01-01T10:30:01.328Z,5.90
2023-01-01T10:32:34.082Z,5.90
2023-01-01T10:35:03.560Z,6.10
2023-01-01T10:37:36.756Z,6.10
2023-01-01T10:40:14.605Z,6.20
2023-01-01T10:42:42.529Z,6.30
2023-01-01T10:45:16.141Z,6.30
2023-01-01T10:48:12.064Z,6.40
2023-01-01T10:50:46.522Z,6.50
2023-01-01T10:53:28.053Z,6.60
2023-01-01T10:56:05.084Z,6.60
2023-01-01T10:58:41.138Z,6.60
2023-01-01T11:01:10.701Z,6.50
2023-01-01T11:03:38.799Z,6.70
2023-01-01T11:06:23.469Z,6.80
2023-01-01T11:08:53.749Z,6.70
2023-01-01T11:11:28.619Z,6.80
2023-01-01T11:13:59.535Z,7.20
2023-01-01T11:16:28.972Z,7.70
2023-01-01T11:19:03.902Z,7.90
2023-01-01T11:21:32.734Z,8.20
2023-01-01T11:24:20.135Z,8.40
2023-01-01T11:26:54.569Z,8.60
2023-01-01T11:29:28.017Z,8.70
2023-01-01T11:31:57.965Z,8.80
2023-01-01T11:34:32.594Z,9.00
2023-01-01T11:37:20.853Z,8.90
2023-01-01T11:39:50.796Z,8.80
2023-01-01T11:42:23.416Z,8.70
2023-01-01T11:44:55.453Z,8.60
2023-01-01T11:47:28.446Z,8.60
2023-01-01T11:49:58.996Z,8.40
2023-01-01T11:52:49.918Z,8.60
2023-01-01T11:55:24.431Z,8.50
2023-01-01T11:58:05.125Z,8.60
2023-01-01T12:00:36.734Z,8.70
2023-01-01T12:03:12.853Z,8.80
2023-01-01T12:05:48.506Z,8.60
2023-01-01T12:08:24.163Z,8.60
2023-01-01T12:10:56.945Z,8.40
2023-01-01T12:13:30.791Z,8.50
2023-01-01T12:16:08.225Z,8.50
2023-01-01T12:18:43.408Z,8.60
2023-01-01T12:21:17.167Z,8.80
2023-01-01T12:23:45.155Z,8.90
2023-01-01T12:26:21.291Z,9.20
2023-01-01T12:29:27.329Z,9.30
2023-01-01T12:32:05.685Z,9.30
2023-01-01T12:34:39.401Z,9.30
2023-01-01T12:37:15.768Z,9.40
2023-01-01T12:40:17.009Z,9.70
2023-01-01T12:42:57.810Z,9.80
2023-01-01T12:45:58.763Z,10.00
2023-01-01T12:48:43.443Z,10.10
2023-01-01T12:51:25.027Z,10.20
2023-01-01T12:54:03.857Z,10.20
2023-01-01T12:56:37.364Z,10.30
2023-01-01T12:59:11.101Z,10.20
2023-01-01T13:01:41.614Z,10.30
2023-01-01T13:04:13.435Z,10.40
2023-01-01T13:06:46.665Z,10.30
2023-01-01T13:09:17.585Z,10.40
2023-01-01T13:11:49.356Z,10.40
2023-01-01T13:14:18.016Z,10.40
2023-01-01T13:16:51.509Z,10.40
2023-01-01T13:19:31.735Z,10.40
2023-01-01T13:21:59.996Z,10.30
2023-01-01T13:24:29.249Z,10.20
2023-01-01T13:26:57.136Z,10.20
2023-01-01T13:29:43.845Z,10.10
2023-01-01T13:32:14.859Z,10.20
2023-01-01T13:35:19.081Z,10.20
2023-01-01T13:37:48.222Z,10.00
2023-01-01T13:40:53.197Z,10.10
2023-01-01T13:43:29.019Z,10.30
2023-01-01T13:46:14.514Z,10.40
2023-01-01T13:49:15.393Z,10.50
2023-01-01T13:52:21.174Z,10.60
2023-01-01T13:55:16.179Z,10.40
2023-01-01T13:58:11.138Z,10.40
2023-01-01T14:00:55.025Z,10.40
2023-01-01T14:03:25.619Z,10.40
2023-01-01T14:05:59.229Z,10.30
2023-01-01T14:08:32.036Z,10.30
2023-01-01T14:11:02.097Z,10.10
2023-01-01T14:13:32.493Z,10.00
2023-01-01T14:16:03.449Z,9.90
2023-01-01T14:18:35.424Z,9.70
2023-01-01T14:21:11.027Z,9.70
2023-01-01T14:23:45.247Z,9.60
2023-01-01T14:26:16.288Z,9.60
2023-01-01T14:28:44.672Z,9.60
2023-01-01T14:31:15.301Z,9.50
2023-01-01T14:33:43.585Z,9.40
2023-01-01T14:36:21.654Z,9.30
2023-01-01T14:38:51.348Z,9.10
2023-01-01T14:41:25.038Z,9.20
2023-01-01T14:43:57.212Z,9.10
2023-01-01T14:46:27.502Z,9.10
2023-01-01T14:48:57.998Z,9.10
2023-01-01T14:51:29.318Z,9.00
2023-01-01T14:53:59.664Z,8.90
2023-01-01T14:56:29.588Z,8.70
2023-01-01T14:59:06.432Z,8.50
2023-01-01T15:01:34.554Z,8.30
2023-01-01T15:04:05.778Z,8.20
2023-01-01T15:06:41.072Z,8.10
2023-01-01T15:09:16.205Z,8.00
2023-01-01T15:11:44.555Z,7.80
2023-01-01T15:14:30.827Z,7.60
2023-01-01T15:17:02.974Z,7.50
2023-01-01T15:19:30.955Z,7.40
2023-01-01T15:22:00.717Z,7.30
2023-01-01T15:24:30.437Z,7.20
2023-01-01T15:27:01.544Z,7.10
2023-01-01T15:29:31.406Z,6.90
2023-01-01T15:32:01.493Z,6.80
2023-01-01T15:34:32.373Z,6.80
2023-01-01T15:37:11.561Z,6.70
2023-01-01T15:39:50.819Z,6.60
2023-01-01T15:42:33.122Z,6.50
2023-01-01T15:45:21.429Z,6.50
2023-01-01T15:47:49.895Z,6.30
2023-01-01T15:50:23.972Z,6.30
2023-01-01T15:52:56.790Z,6.20
2023-01-01T15:55:28.388Z,6.00
2023-01-01T15:57:56.861Z,5.90
2023-01-01T16:00:26.969Z,5.90
2023-01-01T16:02:58.428Z,5.80
2023-01-01T16:05:28.097Z,5.60
2023-01-01T16:08:03.962Z,5.60
2023-01-01T16:10:32.658Z,5.60
2023-01-01T16:13:00.630Z,5.50
2023-01-01T16:15:28.857Z,5.40
2023-01-01T16:17:56.922Z,5.30
2023-01-01T16:20:25.385Z,5.20
2023-01-01T16:22:53.746Z,5.20
2023-01-01T16:25:24.077Z,5.20
2023-01-01T16:27:52.027Z,5.20
2023-01-01T16:30:19.952Z,5.10
2023-01-01T16:32:49.052Z,5.30
2023-01-01T16:35:17.260Z,5.20
2023-01-01T16:37:45.298Z,5.10
2023-01-01T16:40:13.767Z,5.10
2023-01-01T16:42:43.135Z,4.90
2023-01-01T16:45:18.241Z,4.80
2023-01-01T16:47:46.311Z,4.40
2023-01-01T16:50:14.649Z,4.40
2023-01-01T16:52:45.001Z,4.30
2023-01-01T16:55:13.627Z,4.30
2023-01-01T16:57:43.351Z,4.10
2023-01-01T17:00:12.631Z,4.00
2023-01-01T17:02:40.675Z,3.90
2023-01-01T17:05:09.716Z,4.00
2023-01-01T17:07:37.680Z,3.90
2023-01-01T17:10:06.250Z,4.00
2023-01-01T17:12:34.341Z,3.80
2023-01-01T17:15:03.747Z,3.80
2023-01-01T17:17:31.749Z,3.70
2023-01-01T17:19:59.685Z,3.80
2023-01-01T17:22:33.907Z,3.80
2023-01-01T17:25:02.350Z,3.70
2023-01-01T17:27:30.250Z,3.60
2023-01-01T17:29:58.142Z,3.50
2023-01-01T17:32:27.433Z,3.30
2023-01-01T17:34:55.589Z,3.40
2023-01-01T17:37:23.810Z,3.40
2023-01-01T17:39:51.724Z,3.40
2023-01-01T17:42:19.625Z,3.30
2023-01-01T17:44:47.597Z,3.40
2023-01-01T17:47:15.614Z,3.30
2023-01-01T17:49:45.008Z,3.40
2023-01-01T17:52:13.068Z,3.30
2023-01-01T17:54:40.998Z,3.30
2023-01-01T17:57:09.908Z,3.30
2023-01-01T17:59:38.512Z,3.20
2023-01-01T18:02:08.944Z,3.20
2023-01-01T18:04:37.327Z,3.10
2023-01-01T18:07:06.682Z,3.00
2023-01-01T18:09:38.257Z,2.90
2023-01-01T18:12:07.556Z,3.00
2023-01-01T18:14:35.686Z,2.90
2023-01-01T18:17:03.728Z,2.90
2023-01-01T18:19:32.402Z,2.80
2023-01-01T18:22:00.374Z,2.70
2023-01-01T18:24:30.511Z,2.60
2023-01-01T18:26:58.532Z,2.70
2023-01-01T18:29:26.566Z,2.40
2023-01-01T18:31:54.517Z,2.50
2023-01-01T18:34:22.778Z,2.50
2023-01-01T18:36:50.804Z,2.20
2023-01-01T18:39:23.149Z,2.30
2023-01-01T18:42:34.724Z,2.10
2023-01-01T18:45:14.739Z,2.20
2023-01-01T18:47:45.651Z,2.20
2023-01-01T18:50:23.595Z,2.20
2023-01-01T18:52:54.633Z,2.10
2023-01-01T18:55:26.909Z,1.90
2023-01-01T18:58:00.638Z,2.00
2023-01-01T19:00:31.362Z,1.90
2023-01-01T19:03:01.510Z,1.90
2023-01-01T19:05:31.133Z,1.80
2023-01-01T19:08:11.183Z,1.80
2023-01-01T19:10:41.540Z,1.50
2023-01-01T19:13:19.458Z,1.30
2023-01-01T19:15:51.083Z,1.00
2023-01-01T19:18:20.903Z,1.20
2023-01-01T19:20:56.941Z,1.20
2023-01-01T19:23:25.888Z,1.20
2023-01-01T19:25:54.352Z,1.30
2023-01-01T19:28:36.835Z,1.40
2023-01-01T19:31:07.666Z,1.40
2023-01-01T19:33:35.692Z,1.50
2023-01-01T19:36:03.621Z,1.60
2023-01-01T19:38:31.543Z,1.60
2023-01-01T19:40:59.558Z,1.60
2023-01-01T19:43:27.616Z,1.70
2023-01-01T19:45:55.575Z,1.80
2023-01-01T19:48:25.916Z,1.80
2023-01-01T19:50:54.167Z,1.90
2023-01-01T19:53:22.126Z,1.90
2023-01-01T19:55:50.113Z,1.80
2023-01-01T19:58:19.803Z,1.60
2023-01-01T20:00:47.924Z,1.50
2023-01-01T20:06:05.930Z,1.20
2023-01-01T20:08:33.893Z,1.10
2023-01-01T20:11:02.213Z,1.20
2023-01-01T20:13:30.943Z,1.20
2023-01-01T20:15:59.165Z,1.30
2023-01-01T20:18:27.109Z,1.30
2023-01-01T20:21:12.442Z,1.30
2023-01-01T20:23:41.896Z,1.30
2023-01-01T20:26:10.221Z,1.30
2023-01-01T20:28:55.562Z,1.30
2023-01-01T20:31:23.595Z,1.30
2023-01-01T20:33:51.531Z,1.30
2023-01-01T20:36:37.045Z,1.20
2023-01-01T20:39:06.336Z,1.10
2023-01-01T20:41:34.320Z,1.10
2023-01-01T20:44:02.259Z,0.80
2023-01-01T20:46:30.827Z,0.80
2023-01-01T20:48:59.265Z,0.80
2023-01-01T20:51:27.223Z,0.70
2023-01-01T20:53:55.176Z,0.50
2023-01-01T20:56:24.543Z,0.50
2023-01-01T20:58:58.977Z,0.60
2023-01-01T21:01:28.468Z,0.60
2023-01-01T21:03:56.519Z,0.60
2023-01-01T21:06:25.018Z,0.60
2023-01-01T21:08:53.072Z,0.60
2023-01-01T21:11:21.029Z,0.60
2023-01-01T21:13:50.707Z,0.60
2023-01-01T21:16:20.876Z,0.70
2023-01-01T21:18:49.638Z,0.80
2023-01-01T21:21:21.448Z,0.80
2023-01-01T21:23:50.203Z,1.00
2023-01-01T21:26:23.719Z,1.00
2023-01-01T21:28:53.199Z,0.90
2023-01-01T21:31:22.622Z,0.70
2023-01-01T21:33:50.591Z,0.60
2023-01-01T21:36:20.418Z,0.60
2023-01-01T21:38:49.989Z,0.50
2023-01-01T21:41:20.686Z,0.50
2023-01-01T21:43:51.865Z,0.50
2023-01-01T21:46:37.490Z,0.50
2023-01-01T21:49:14.748Z,0.80
2023-01-01T21:51:47.642Z,0.90
2023-01-01T21:54:31.016Z,0.90
2023-01-01T21:57:00.797Z,0.90
2023-01-01T21:59:37.450Z,0.90
2023-01-01T22:02:33.220Z,0.90
2023-01-01T22:05:03.844Z,1.00
2023-01-01T22:10:25.037Z,1.00
2023-01-01T22:12:57.502Z,1.10
2023-01-01T22:15:40.335Z,1.10
2023-01-01T22:18:24.011Z,1.10
2023-01-01T22:20:52.582Z,1.20
2023-01-01T22:23:40.188Z,1.10
2023-01-01T22:26:18.432Z,1.20
2023-01-01T22:28:48.174Z,1.10
2023-01-01T22:31:21.526Z,1.20
2023-01-01T22:33:52.826Z,1.30
2023-01-01T22:36:25.389Z,1.20
2023-01-01T22:38:55.420Z,1.30
2023-01-01T22:41:23.346Z,1.40
2023-01-01T22:43:53.164Z,1.40
2023-01-01T22:46:27.997Z,1.30
2023-01-01T22:48:59.871Z,1.50
2023-01-01T22:51:35.173Z,1.60
2023-01-01T22:54:03.272Z,1.60
2023-01-01T22:56:31.184Z,1.50
2023-01-01T22:58:59.206Z,1.30
2023-01-01T23:01:27.265Z,1.50
2023-01-01T23:03:55.313Z,1.50
2023-01-01T23:06:25.448Z,1.60
2023-01-01T23:08:54.355Z,1.60
2023-01-01T23:11:23.163Z,1.60
2023-01-01T23:14:09.451Z,1.60
2023-01-01T23:16:38.019Z,1.50
2023-01-01T23:19:06.400Z,1.60
2023-01-01T23:21:37.409Z,1.70
2023-01-01T23:24:09.913Z,1.70
2023-01-01T23:26:38.991Z,1.70
2023-01-01T23:29:08.332Z,1.70
2023-01-01T23:31:36.493Z,1.70
2023-01-01T23:34:05.239Z,1.60
2023-01-01T23:36:33.721Z,1.60
2023-01-01T23:39:03.359Z,1.60
2023-01-01T23:41:32.056Z,1.50
2023-01-01T23:44:00.137Z,1.50
2023-01-01T23:46:28.263Z,1.50
2023-01-01T23:48:56.485Z,1.40
2023-01-01T23:51:24.408Z,1.40
2023-01-01T23:53:52.347Z,1.50
2023-01-01T23:56:21.608Z,1.50
2023-01-01T23:58:49.661Z,1.40
